sensor_id;sensor_type;location;lat;lon;timestamp;temperature;humidity
1413;DHT22;701;52.526;13.408;2022-11-14T00:00:55;7.80;46.30
1413;DHT22;701;52.526;13.408;2022-11-14T00:03:39;7.80;46.20
1413;DHT22;701;52.526;13.408;2022-11-14T00:06:23;7.90;46.00
1413;DHT22;701;52.526;13.408;2022-11-14T00:09:07;7.80;46.00
1413;DHT22;701;52.526;13.408;2022-11-14T00:11:51;7.80;46.10
1413;DHT22;701;52.526;13.408;2022-11-14T00:14:36;7.80;46.20
1413;DHT22;701;52.526;13.408;2022-11-14T00:17:20;7.80;46.60
1413;DHT22;701;52.526;13.408;2022-11-14T00:20:06;7.70;46.70
1413;DHT22;701;52.526;13.408;2022-11-14T00:22:51;7.70;46.80
1413;DHT22;701;52.526;13.408;2022-11-14T00:25:35;7.70;47.30
1413;DHT22;701;52.526;13.408;2022-11-14T00:28:19;7.60;47.60
1413;DHT22;701;52.526;13.408;2022-11-14T00:31:03;7.60;47.60
1413;DHT22;701;52.526;13.408;2022-11-14T00:33:48;7.60;47.60
1413;DHT22;701;52.526;13.408;2022-11-14T00:36:32;7.60;47.60
1413;DHT22;701;52.526;13.408;2022-11-14T00:39:16;7.50;48.10
1413;DHT22;701;52.526;13.408;2022-11-14T00:42:00;7.60;48.50
1413;DHT22;701;52.526;13.408;2022-11-14T00:44:44;7.60;48.70
1413;DHT22;701;52.526;13.408;2022-11-14T00:47:28;7.60;48.60
1413;DHT22;701;52.526;13.408;2022-11-14T00:50:14;7.60;48.50
1413;DHT22;701;52.526;13.408;2022-11-14T00:52:58;7.50;48.70
1413;DHT22;701;52.526;13.408;2022-11-14T00:55:42;7.50;48.90
1413;DHT22;701;52.526;13.408;2022-11-14T00:58:26;7.50;49.00
1413;DHT22;701;52.526;13.408;2022-11-14T01:01:10;7.50;49.70
1413;DHT22;701;52.526;13.408;2022-11-14T01:03:55;7.40;49.90
1413;DHT22;701;52.526;13.408;2022-11-14T01:06:39;7.40;50.20
1413;DHT22;701;52.526;13.408;2022-11-14T01:09:23;7.40;50.50
1413;DHT22;701;52.526;13.408;2022-11-14T01:12:07;7.30;50.60
1413;DHT22;701;52.526;13.408;2022-11-14T01:14:51;7.30;50.90
1413;DHT22;701;52.526;13.408;2022-11-14T01:17:35;7.30;51.40
1413;DHT22;701;52.526;13.408;2022-11-14T01:20:20;7.20;51.50
1413;DHT22;701;52.526;13.408;2022-11-14T01:23:04;7.20;51.60
1413;DHT22;701;52.526;13.408;2022-11-14T01:25:48;7.20;51.90
1413;DHT22;701;52.526;13.408;2022-11-14T01:28:33;7.20;52.00
1413;DHT22;701;52.526;13.408;2022-11-14T01:31:20;7.20;52.10
1413;DHT22;701;52.526;13.408;2022-11-14T01:34:05;7.10;53.10
1413;DHT22;701;52.526;13.408;2022-11-14T01:36:49;7.10;53.40
1413;DHT22;701;52.526;13.408;2022-11-14T01:39:34;7.10;53.00
1413;DHT22;701;52.526;13.408;2022-11-14T01:42:18;7.00;53.10
1413;DHT22;701;52.526;13.408;2022-11-14T01:45:45;7.00;53.20
1413;DHT22;701;52.526;13.408;2022-11-14T01:52:03;7.00;54.00
1413;DHT22;701;52.526;13.408;2022-11-14T01:54:51;6.90;54.20
1413;DHT22;701;52.526;13.408;2022-11-14T01:57:40;6.90;54.50
1413;DHT22;701;52.526;13.408;2022-11-14T02:00:27;6.90;55.00
1413;DHT22;701;52.526;13.408;2022-11-14T02:03:12;6.90;55.30
1413;DHT22;701;52.526;13.408;2022-11-14T02:05:58;7.00;55.40
1413;DHT22;701;52.526;13.408;2022-11-14T02:08:43;7.00;55.50
1413;DHT22;701;52.526;13.408;2022-11-14T02:11:30;7.10;55.50
1413;DHT22;701;52.526;13.408;2022-11-14T02:14:15;7.10;55.20
1413;DHT22;701;52.526;13.408;2022-11-14T02:16:59;7.20;54.70
1413;DHT22;701;52.526;13.408;2022-11-14T02:19:53;7.20;54.50
1413;DHT22;701;52.526;13.408;2022-11-14T02:22:39;7.30;54.10
1413;DHT22;701;52.526;13.408;2022-11-14T02:25:23;7.30;53.70
1413;DHT22;701;52.526;13.408;2022-11-14T02:28:08;7.40;53.10
1413;DHT22;701;52.526;13.408;2022-11-14T02:30:53;7.40;52.70
1413;DHT22;701;52.526;13.408;2022-11-14T02:33:38;7.40;52.50
1413;DHT22;701;52.526;13.408;2022-11-14T02:36:23;7.50;51.70
1413;DHT22;701;52.526;13.408;2022-11-14T02:39:07;7.50;51.70
1413;DHT22;701;52.526;13.408;2022-11-14T02:41:51;7.50;51.70
1413;DHT22;701;52.526;13.408;2022-11-14T02:44:36;7.50;51.40
1413;DHT22;701;52.526;13.408;2022-11-14T02:47:20;7.50;51.00
1413;DHT22;701;52.526;13.408;2022-11-14T02:50:04;7.50;50.90
1413;DHT22;701;52.526;13.408;2022-11-14T02:52:49;7.50;50.70
1413;DHT22;701;52.526;13.408;2022-11-14T02:55:34;7.50;50.60
1413;DHT22;701;52.526;13.408;2022-11-14T02:58:18;7.60;50.50
1413;DHT22;701;52.526;13.408;2022-11-14T03:01:02;7.60;50.30
1413;DHT22;701;52.526;13.408;2022-11-14T03:03:46;7.60;49.90
1413;DHT22;701;52.526;13.408;2022-11-14T03:06:30;7.50;49.70
1413;DHT22;701;52.526;13.408;2022-11-14T03:09:14;7.50;49.80
1413;DHT22;701;52.526;13.408;2022-11-14T03:11:58;7.50;50.10
1413;DHT22;701;52.526;13.408;2022-11-14T03:14:43;7.40;50.20
1413;DHT22;701;52.526;13.408;2022-11-14T03:17:31;7.50;50.40
1413;DHT22;701;52.526;13.408;2022-11-14T03:20:16;7.50;50.40
1413;DHT22;701;52.526;13.408;2022-11-14T03:23:00;7.40;50.10
1413;DHT22;701;52.526;13.408;2022-11-14T03:25:44;7.40;50.40
1413;DHT22;701;52.526;13.408;2022-11-14T03:28:28;7.40;50.50
1413;DHT22;701;52.526;13.408;2022-11-14T03:31:13;7.40;50.60
1413;DHT22;701;52.526;13.408;2022-11-14T03:33:57;7.50;50.50
1413;DHT22;701;52.526;13.408;2022-11-14T03:36:41;7.50;50.20
1413;DHT22;701;52.526;13.408;2022-11-14T03:39:26;7.50;49.80
1413;DHT22;701;52.526;13.408;2022-11-14T03:42:10;7.50;49.50
1413;DHT22;701;52.526;13.408;2022-11-14T03:44:54;7.50;49.10
1413;DHT22;701;52.526;13.408;2022-11-14T03:47:38;7.50;49.10
1413;DHT22;701;52.526;13.408;2022-11-14T03:50:23;7.50;49.20
1413;DHT22;701;52.526;13.408;2022-11-14T03:53:07;7.50;49.10
1413;DHT22;701;52.526;13.408;2022-11-14T03:55:52;7.50;48.90
1413;DHT22;701;52.526;13.408;2022-11-14T03:58:36;7.50;48.80
1413;DHT22;701;52.526;13.408;2022-11-14T04:01:20;7.50;48.50
1413;DHT22;701;52.526;13.408;2022-11-14T04:04:04;7.40;48.60
1413;DHT22;701;52.526;13.408;2022-11-14T04:06:48;7.40;49.00
1413;DHT22;701;52.526;13.408;2022-11-14T04:09:32;7.40;49.20
1413;DHT22;701;52.526;13.408;2022-11-14T04:12:17;7.40;49.10
1413;DHT22;701;52.526;13.408;2022-11-14T04:15:02;7.30;49.10
1413;DHT22;701;52.526;13.408;2022-11-14T04:17:46;7.30;49.20
1413;DHT22;701;52.526;13.408;2022-11-14T04:20:30;7.30;49.60
1413;DHT22;701;52.526;13.408;2022-11-14T04:23:14;7.20;49.60
1413;DHT22;701;52.526;13.408;2022-11-14T04:25:58;7.20;49.80
1413;DHT22;701;52.526;13.408;2022-11-14T04:28:42;7.20;50.10
1413;DHT22;701;52.526;13.408;2022-11-14T04:31:26;7.20;51.10
1413;DHT22;701;52.526;13.408;2022-11-14T04:34:10;7.10;50.60
1413;DHT22;701;52.526;13.408;2022-11-14T04:36:54;7.10;50.90
1413;DHT22;701;52.526;13.408;2022-11-14T04:39:38;7.00;51.30
1413;DHT22;701;52.526;13.408;2022-11-14T04:42:23;7.00;51.30
1413;DHT22;701;52.526;13.408;2022-11-14T04:45:08;6.90;51.60
1413;DHT22;701;52.526;13.408;2022-11-14T04:47:53;7.00;52.00
1413;DHT22;701;52.526;13.408;2022-11-14T04:50:37;7.00;52.10
1413;DHT22;701;52.526;13.408;2022-11-14T04:53:21;6.90;52.40
1413;DHT22;701;52.526;13.408;2022-11-14T04:56:05;6.90;52.70
1413;DHT22;701;52.526;13.408;2022-11-14T04:58:50;6.90;52.70
1413;DHT22;701;52.526;13.408;2022-11-14T05:01:34;6.90;52.60
1413;DHT22;701;52.526;13.408;2022-11-14T05:04:18;6.90;52.50
1413;DHT22;701;52.526;13.408;2022-11-14T05:07:02;7.00;52.90
1413;DHT22;701;52.526;13.408;2022-11-14T05:09:47;7.00;52.70
1413;DHT22;701;52.526;13.408;2022-11-14T05:12:31;7.00;52.60
1413;DHT22;701;52.526;13.408;2022-11-14T05:15:15;6.90;52.60
1413;DHT22;701;52.526;13.408;2022-11-14T05:17:59;7.00;52.30
1413;DHT22;701;52.526;13.408;2022-11-14T05:20:44;7.00;52.10
1413;DHT22;701;52.526;13.408;2022-11-14T05:23:28;6.90;52.50
1413;DHT22;701;52.526;13.408;2022-11-14T05:26:15;6.90;52.40
1413;DHT22;701;52.526;13.408;2022-11-14T05:29:00;6.90;52.40
1413;DHT22;701;52.526;13.408;2022-11-14T05:31:44;6.90;52.30
1413;DHT22;701;52.526;13.408;2022-11-14T05:34:28;6.90;52.30
1413;DHT22;701;52.526;13.408;2022-11-14T05:37:12;6.90;52.30
1413;DHT22;701;52.526;13.408;2022-11-14T05:39:56;6.90;52.40
1413;DHT22;701;52.526;13.408;2022-11-14T05:42:40;7.00;52.10
1413;DHT22;701;52.526;13.408;2022-11-14T05:45:24;6.90;52.10
1413;DHT22;701;52.526;13.408;2022-11-14T05:48:08;7.00;52.20
1413;DHT22;701;52.526;13.408;2022-11-14T05:50:54;7.00;52.20
1413;DHT22;701;52.526;13.408;2022-11-14T05:53:39;7.00;52.20
1413;DHT22;701;52.526;13.408;2022-11-14T05:56:23;7.10;52.10
1413;DHT22;701;52.526;13.408;2022-11-14T05:59:07;7.10;51.40
1413;DHT22;701;52.526;13.408;2022-11-14T06:01:52;7.20;52.10
1413;DHT22;701;52.526;13.408;2022-11-14T06:04:36;7.20;51.30
1413;DHT22;701;52.526;13.408;2022-11-14T06:07:20;7.20;50.10
1413;DHT22;701;52.526;13.408;2022-11-14T06:10:05;7.20;50.00
1413;DHT22;701;52.526;13.408;2022-11-14T06:12:50;7.20;49.80
1413;DHT22;701;52.526;13.408;2022-11-14T06:15:34;7.20;49.80
1413;DHT22;701;52.526;13.408;2022-11-14T06:18:18;7.20;49.80
1413;DHT22;701;52.526;13.408;2022-11-14T06:21:16;7.20;49.60
1413;DHT22;701;52.526;13.408;2022-11-14T06:24:01;7.20;49.60
1413;DHT22;701;52.526;13.408;2022-11-14T06:26:45;7.20;49.50
1413;DHT22;701;52.526;13.408;2022-11-14T06:29:29;7.10;49.70
1413;DHT22;701;52.526;13.408;2022-11-14T06:32:13;7.10;49.70
1413;DHT22;701;52.526;13.408;2022-11-14T06:34:58;7.10;49.80
1413;DHT22;701;52.526;13.408;2022-11-14T06:37:42;7.00;50.00
1413;DHT22;701;52.526;13.408;2022-11-14T06:40:26;7.10;50.00
1413;DHT22;701;52.526;13.408;2022-11-14T06:43:10;7.00;49.80
1413;DHT22;701;52.526;13.408;2022-11-14T06:45:54;7.00;50.00
1413;DHT22;701;52.526;13.408;2022-11-14T06:48:39;7.00;50.50
1413;DHT22;701;52.526;13.408;2022-11-14T06:51:23;6.90;51.20
1413;DHT22;701;52.526;13.408;2022-11-14T06:54:10;7.00;51.30
1413;DHT22;701;52.526;13.408;2022-11-14T06:56:55;7.00;51.30
1413;DHT22;701;52.526;13.408;2022-11-14T06:59:39;7.00;51.30
1413;DHT22;701;52.526;13.408;2022-11-14T07:02:23;6.90;51.20
1413;DHT22;701;52.526;13.408;2022-11-14T07:05:07;6.90;51.20
1413;DHT22;701;52.526;13.408;2022-11-14T07:07:51;6.90;51.20
1413;DHT22;701;52.526;13.408;2022-11-14T07:10:36;6.90;51.30
1413;DHT22;701;52.526;13.408;2022-11-14T07:13:20;6.90;51.20
1413;DHT22;701;52.526;13.408;2022-11-14T07:16:05;7.00;51.40
1413;DHT22;701;52.526;13.408;2022-11-14T07:18:49;7.00;51.30
1413;DHT22;701;52.526;13.408;2022-11-14T07:21:34;7.00;51.20
1413;DHT22;701;52.526;13.408;2022-11-14T07:24:18;7.00;50.40
1413;DHT22;701;52.526;13.408;2022-11-14T07:27:03;7.10;50.20
1413;DHT22;701;52.526;13.408;2022-11-14T07:29:51;7.10;49.90
1413;DHT22;701;52.526;13.408;2022-11-14T07:32:36;7.20;50.00
1413;DHT22;701;52.526;13.408;2022-11-14T07:35:20;7.30;48.90
1413;DHT22;701;52.526;13.408;2022-11-14T07:38:04;7.20;48.20
1413;DHT22;701;52.526;13.408;2022-11-14T07:40:53;7.20;48.10
1413;DHT22;701;52.526;13.408;2022-11-14T07:43:38;7.30;48.00
1413;DHT22;701;52.526;13.408;2022-11-14T07:46:23;7.20;48.00
1413;DHT22;701;52.526;13.408;2022-11-14T07:49:07;7.20;47.90
1413;DHT22;701;52.526;13.408;2022-11-14T07:51:51;7.20;47.90
1413;DHT22;701;52.526;13.408;2022-11-14T07:54:35;7.20;48.00
1413;DHT22;701;52.526;13.408;2022-11-14T07:57:19;7.30;47.90
1413;DHT22;701;52.526;13.408;2022-11-14T08:00:05;7.30;47.70
1413;DHT22;701;52.526;13.408;2022-11-14T08:02:49;7.40;47.40
1413;DHT22;701;52.526;13.408;2022-11-14T08:05:34;7.50;47.50
1413;DHT22;701;52.526;13.408;2022-11-14T08:08:18;7.60;47.30
1413;DHT22;701;52.526;13.408;2022-11-14T08:11:02;7.60;46.80
1413;DHT22;701;52.526;13.408;2022-11-14T08:13:47;7.70;46.30
1413;DHT22;701;52.526;13.408;2022-11-14T08:16:31;7.90;45.30
1413;DHT22;701;52.526;13.408;2022-11-14T08:19:16;7.90;44.30
1413;DHT22;701;52.526;13.408;2022-11-14T08:22:01;7.90;43.70
1413;DHT22;701;52.526;13.408;2022-11-14T08:24:45;8.00;43.60
1413;DHT22;701;52.526;13.408;2022-11-14T08:27:29;8.00;43.00
1413;DHT22;701;52.526;13.408;2022-11-14T08:30:13;8.10;42.90
1413;DHT22;701;52.526;13.408;2022-11-14T08:33:05;8.10;42.30
1413;DHT22;701;52.526;13.408;2022-11-14T08:35:49;8.10;42.00
1413;DHT22;701;52.526;13.408;2022-11-14T08:38:34;8.10;42.10
1413;DHT22;701;52.526;13.408;2022-11-14T08:41:18;8.10;42.00
1413;DHT22;701;52.526;13.408;2022-11-14T08:44:02;8.20;41.80
1413;DHT22;701;52.526;13.408;2022-11-14T08:46:46;8.20;40.80
1413;DHT22;701;52.526;13.408;2022-11-14T08:49:30;8.20;40.50
1413;DHT22;701;52.526;13.408;2022-11-14T08:52:14;8.20;40.50
1413;DHT22;701;52.526;13.408;2022-11-14T08:54:58;8.20;40.70
1413;DHT22;701;52.526;13.408;2022-11-14T08:57:42;8.30;40.50
1413;DHT22;701;52.526;13.408;2022-11-14T09:00:27;8.40;39.70
1413;DHT22;701;52.526;13.408;2022-11-14T09:03:11;8.50;39.80
1413;DHT22;701;52.526;13.408;2022-11-14T09:05:59;8.50;39.00
1413;DHT22;701;52.526;13.408;2022-11-14T09:08:44;8.50;38.30
1413;DHT22;701;52.526;13.408;2022-11-14T09:11:28;8.50;38.20
1413;DHT22;701;52.526;13.408;2022-11-14T09:14:12;8.40;38.10
1413;DHT22;701;52.526;13.408;2022-11-14T09:16:56;8.40;38.10
1413;DHT22;701;52.526;13.408;2022-11-14T09:19:41;8.40;38.30
1413;DHT22;701;52.526;13.408;2022-11-14T09:22:25;8.40;38.20
1413;DHT22;701;52.526;13.408;2022-11-14T09:25:09;8.30;38.20
1413;DHT22;701;52.526;13.408;2022-11-14T09:27:53;8.30;38.40
1413;DHT22;701;52.526;13.408;2022-11-14T09:30:37;8.30;38.20
1413;DHT22;701;52.526;13.408;2022-11-14T09:33:23;8.30;38.20
1413;DHT22;701;52.526;13.408;2022-11-14T09:36:10;8.30;38.30
1413;DHT22;701;52.526;13.408;2022-11-14T09:38:55;8.30;38.40
1413;DHT22;701;52.526;13.408;2022-11-14T09:41:44;8.40;38.30
1413;DHT22;701;52.526;13.408;2022-11-14T09:47:46;8.50;37.70
1413;DHT22;701;52.526;13.408;2022-11-14T09:50:37;8.50;37.40
1413;DHT22;701;52.526;13.408;2022-11-14T09:53:36;8.50;36.90
1413;DHT22;701;52.526;13.408;2022-11-14T09:56:24;8.60;37.10
1413;DHT22;701;52.526;13.408;2022-11-14T09:59:11;8.60;36.70
1413;DHT22;701;52.526;13.408;2022-11-14T10:02:05;8.70;36.80
1413;DHT22;701;52.526;13.408;2022-11-14T10:07:59;8.80;36.00
1413;DHT22;701;52.526;13.408;2022-11-14T10:11:23;8.90;35.70
1413;DHT22;701;52.526;13.408;2022-11-14T10:20:32;9.10;34.50
1413;DHT22;701;52.526;13.408;2022-11-14T10:23:31;9.20;34.50
1413;DHT22;701;52.526;13.408;2022-11-14T10:26:27;9.30;33.80
1413;DHT22;701;52.526;13.408;2022-11-14T10:29:29;9.40;33.40
1413;DHT22;701;52.526;13.408;2022-11-14T10:38:47;9.70;32.70
1413;DHT22;701;52.526;13.408;2022-11-14T10:41:33;9.80;32.60
1413;DHT22;701;52.526;13.408;2022-11-14T10:44:24;9.90;32.10
1413;DHT22;701;52.526;13.408;2022-11-14T10:47:13;10.00;30.50
1413;DHT22;701;52.526;13.408;2022-11-14T10:49:59;10.10;29.90
1413;DHT22;701;52.526;13.408;2022-11-14T10:52:52;10.20;29.50
1413;DHT22;701;52.526;13.408;2022-11-14T10:55:39;10.20;29.30
1413;DHT22;701;52.526;13.408;2022-11-14T10:58:23;10.30;28.70
1413;DHT22;701;52.526;13.408;2022-11-14T11:01:34;10.30;28.40
1413;DHT22;701;52.526;13.408;2022-11-14T11:04:24;10.40;28.40
1413;DHT22;701;52.526;13.408;2022-11-14T11:09:58;10.60;28.50
1413;DHT22;701;52.526;13.408;2022-11-14T11:13:02;10.70;28.10
1413;DHT22;701;52.526;13.408;2022-11-14T11:15:54;10.80;27.40
1413;DHT22;701;52.526;13.408;2022-11-14T11:18:41;10.90;27.40
1413;DHT22;701;52.526;13.408;2022-11-14T11:21:25;11.00;27.20
1413;DHT22;701;52.526;13.408;2022-11-14T11:24:09;11.10;27.30
1413;DHT22;701;52.526;13.408;2022-11-14T11:27:13;11.20;26.20
1413;DHT22;701;52.526;13.408;2022-11-14T11:30:28;11.20;26.10
1413;DHT22;701;52.526;13.408;2022-11-14T11:36:17;11.40;25.00
1413;DHT22;701;52.526;13.408;2022-11-14T11:39:02;11.50;25.50
1413;DHT22;701;52.526;13.408;2022-11-14T11:41:48;11.50;25.00
1413;DHT22;701;52.526;13.408;2022-11-14T11:44:42;11.50;25.00
1413;DHT22;701;52.526;13.408;2022-11-14T11:47:30;11.40;25.00
1413;DHT22;701;52.526;13.408;2022-11-14T11:50:18;11.40;24.50
1413;DHT22;701;52.526;13.408;2022-11-14T11:56:48;11.20;24.90
1413;DHT22;701;52.526;13.408;2022-11-14T11:59:41;11.20;25.10
1413;DHT22;701;52.526;13.408;2022-11-14T12:02:27;11.10;25.20
1413;DHT22;701;52.526;13.408;2022-11-14T12:05:15;11.00;25.50
1413;DHT22;701;52.526;13.408;2022-11-14T12:10:48;11.00;25.90
1413;DHT22;701;52.526;13.408;2022-11-14T12:13:48;10.90;25.90
1413;DHT22;701;52.526;13.408;2022-11-14T12:31:30;11.10;25.50
1413;DHT22;701;52.526;13.408;2022-11-14T12:37:30;11.20;25.10
1413;DHT22;701;52.526;13.408;2022-11-14T12:40:28;11.30;25.10
1413;DHT22;701;52.526;13.408;2022-11-14T12:46:17;11.40;25.00
1413;DHT22;701;52.526;13.408;2022-11-14T12:49:38;11.40;25.00
1413;DHT22;701;52.526;13.408;2022-11-14T12:52:47;11.40;25.00
1413;DHT22;701;52.526;13.408;2022-11-14T13:04:41;11.70;24.50
1413;DHT22;701;52.526;13.408;2022-11-14T13:10:42;11.70;24.10
1413;DHT22;701;52.526;13.408;2022-11-14T13:13:27;11.70;24.40
1413;DHT22;701;52.526;13.408;2022-11-14T13:16:31;11.70;24.40
1413;DHT22;701;52.526;13.408;2022-11-14T13:19:34;11.70;24.50
1413;DHT22;701;52.526;13.408;2022-11-14T13:22:46;11.80;24.40
1413;DHT22;701;52.526;13.408;2022-11-14T13:25:31;11.80;24.50
1413;DHT22;701;52.526;13.408;2022-11-14T13:40:35;11.70;24.20
1413;DHT22;701;52.526;13.408;2022-11-14T13:52:54;11.70;24.60
1413;DHT22;701;52.526;13.408;2022-11-14T14:14:02;11.40;25.50
1413;DHT22;701;52.526;13.408;2022-11-14T14:16:56;11.30;25.40
1413;DHT22;701;52.526;13.408;2022-11-14T14:23:01;11.30;25.70
1413;DHT22;701;52.526;13.408;2022-11-14T14:29:03;11.20;26.00
1413;DHT22;701;52.526;13.408;2022-11-14T14:31:49;11.20;26.10
1413;DHT22;701;52.526;13.408;2022-11-14T14:34:35;11.10;26.30
1413;DHT22;701;52.526;13.408;2022-11-14T14:37:20;11.10;26.50
1413;DHT22;701;52.526;13.408;2022-11-14T14:40:06;11.10;26.70
1413;DHT22;701;52.526;13.408;2022-11-14T14:42:52;11.00;26.80
1413;DHT22;701;52.526;13.408;2022-11-14T14:45:47;11.00;27.00
1413;DHT22;701;52.526;13.408;2022-11-14T14:48:37;10.90;27.20
1413;DHT22;701;52.526;13.408;2022-11-14T14:51:34;10.90;27.40
1413;DHT22;701;52.526;13.408;2022-11-14T14:54:21;10.80;27.50
1413;DHT22;701;52.526;13.408;2022-11-14T14:57:16;10.80;27.70
1413;DHT22;701;52.526;13.408;2022-11-14T15:00:23;10.80;28.00
1413;DHT22;701;52.526;13.408;2022-11-14T15:03:12;10.70;28.10
1413;DHT22;701;52.526;13.408;2022-11-14T15:05:58;10.70;28.00
1413;DHT22;701;52.526;13.408;2022-11-14T15:08:43;10.60;28.00
1413;DHT22;701;52.526;13.408;2022-11-14T15:11:29;10.60;28.50
1413;DHT22;701;52.526;13.408;2022-11-14T15:14:37;10.50;28.60
1413;DHT22;701;52.526;13.408;2022-11-14T15:17:21;10.50;28.80
1413;DHT22;701;52.526;13.408;2022-11-14T15:20:23;10.40;29.20
1413;DHT22;701;52.526;13.408;2022-11-14T15:26:02;10.30;29.80
1413;DHT22;701;52.526;13.408;2022-11-14T15:28:46;10.30;29.90
1413;DHT22;701;52.526;13.408;2022-11-14T15:31:33;10.20;30.00
1413;DHT22;701;52.526;13.408;2022-11-14T15:34:30;10.20;30.30
1413;DHT22;701;52.526;13.408;2022-11-14T15:40:20;10.10;30.60
1413;DHT22;701;52.526;13.408;2022-11-14T15:43:34;10.00;31.10
1413;DHT22;701;52.526;13.408;2022-11-14T15:46:33;9.90;32.10
1413;DHT22;701;52.526;13.408;2022-11-14T15:49:23;9.90;32.10
1413;DHT22;701;52.526;13.408;2022-11-14T15:52:24;9.80;32.00
1413;DHT22;701;52.526;13.408;2022-11-14T15:55:20;9.70;32.80
1413;DHT22;701;52.526;13.408;2022-11-14T15:58:11;9.70;32.90
1413;DHT22;701;52.526;13.408;2022-11-14T16:00:56;9.60;33.20
1413;DHT22;701;52.526;13.408;2022-11-14T16:03:44;9.60;33.80
1413;DHT22;701;52.526;13.408;2022-11-14T16:06:31;9.50;33.80
1413;DHT22;701;52.526;13.408;2022-11-14T16:09:17;9.50;34.10
1413;DHT22;701;52.526;13.408;2022-11-14T16:12:02;9.50;34.60
1413;DHT22;701;52.526;13.408;2022-11-14T16:14:47;9.40;34.50
1413;DHT22;701;52.526;13.408;2022-11-14T16:17:34;9.40;34.80
1413;DHT22;701;52.526;13.408;2022-11-14T16:20:26;9.40;35.20
1413;DHT22;701;52.526;13.408;2022-11-14T16:23:12;9.30;35.40
1413;DHT22;701;52.526;13.408;2022-11-14T16:25:59;9.30;35.50
1413;DHT22;701;52.526;13.408;2022-11-14T16:28:43;9.20;35.90
1413;DHT22;701;52.526;13.408;2022-11-14T16:31:28;9.20;35.90
1413;DHT22;701;52.526;13.408;2022-11-14T16:34:18;9.20;36.00
1413;DHT22;701;52.526;13.408;2022-11-14T16:37:04;9.20;36.30
1413;DHT22;701;52.526;13.408;2022-11-14T16:39:49;9.20;36.60
1413;DHT22;701;52.526;13.408;2022-11-14T16:42:34;9.10;36.60
1413;DHT22;701;52.526;13.408;2022-11-14T16:45:19;9.10;37.00
1413;DHT22;701;52.526;13.408;2022-11-14T16:48:03;9.10;37.00
1413;DHT22;701;52.526;13.408;2022-11-14T16:50:48;9.10;37.50
1413;DHT22;701;52.526;13.408;2022-11-14T16:53:32;9.10;37.60
1413;DHT22;701;52.526;13.408;2022-11-14T16:56:16;9.00;38.00
1413;DHT22;701;52.526;13.408;2022-11-14T16:59:01;9.00;38.10
1413;DHT22;701;52.526;13.408;2022-11-14T17:01:45;9.00;37.90
1413;DHT22;701;52.526;13.408;2022-11-14T17:04:31;9.00;37.90
1413;DHT22;701;52.526;13.408;2022-11-14T17:07:15;9.00;38.00
1413;DHT22;701;52.526;13.408;2022-11-14T17:09:59;9.00;38.50
1413;DHT22;701;52.526;13.408;2022-11-14T17:12:43;8.90;38.60
1413;DHT22;701;52.526;13.408;2022-11-14T17:15:27;8.90;38.80
1413;DHT22;701;52.526;13.408;2022-11-14T17:18:11;8.90;38.90
1413;DHT22;701;52.526;13.408;2022-11-14T17:20:56;8.90;39.20
1413;DHT22;701;52.526;13.408;2022-11-14T17:23:40;8.90;39.50
1413;DHT22;701;52.526;13.408;2022-11-14T17:26:24;8.80;39.70
1413;DHT22;701;52.526;13.408;2022-11-14T17:29:09;8.80;40.00
1413;DHT22;701;52.526;13.408;2022-11-14T17:31:55;8.80;40.00
1413;DHT22;701;52.526;13.408;2022-11-14T17:34:39;8.80;40.00
1413;DHT22;701;52.526;13.408;2022-11-14T17:37:23;8.70;40.00
1413;DHT22;701;52.526;13.408;2022-11-14T17:40:08;8.70;39.90
1413;DHT22;701;52.526;13.408;2022-11-14T17:42:52;8.70;40.30
1413;DHT22;701;52.526;13.408;2022-11-14T17:45:36;8.70;41.70
1413;DHT22;701;52.526;13.408;2022-11-14T17:48:22;8.60;40.80
1413;DHT22;701;52.526;13.408;2022-11-14T17:51:10;8.60;41.20
1413;DHT22;701;52.526;13.408;2022-11-14T17:53:55;8.60;41.60
1413;DHT22;701;52.526;13.408;2022-11-14T17:56:39;8.60;41.50
1413;DHT22;701;52.526;13.408;2022-11-14T17:59:23;8.60;42.50
1413;DHT22;701;52.526;13.408;2022-11-14T18:02:12;8.50;42.10
1413;DHT22;701;52.526;13.408;2022-11-14T18:04:57;8.50;42.40
1413;DHT22;701;52.526;13.408;2022-11-14T18:07:40;8.50;43.10
1413;DHT22;701;52.526;13.408;2022-11-14T18:10:24;8.50;43.30
1413;DHT22;701;52.526;13.408;2022-11-14T18:13:09;8.50;43.30
1413;DHT22;701;52.526;13.408;2022-11-14T18:15:53;8.50;43.20
1413;DHT22;701;52.526;13.408;2022-11-14T18:18:37;8.50;43.20
1413;DHT22;701;52.526;13.408;2022-11-14T18:21:23;8.40;43.10
1413;DHT22;701;52.526;13.408;2022-11-14T18:24:11;8.40;43.10
1413;DHT22;701;52.526;13.408;2022-11-14T18:26:56;8.40;43.10
1413;DHT22;701;52.526;13.408;2022-11-14T18:29:42;8.40;43.70
1413;DHT22;701;52.526;13.408;2022-11-14T18:32:26;8.40;43.80
1413;DHT22;701;52.526;13.408;2022-11-14T18:35:10;8.30;43.90
1413;DHT22;701;52.526;13.408;2022-11-14T18:37:54;8.30;44.20
1413;DHT22;701;52.526;13.408;2022-11-14T18:40:42;8.30;44.00
1413;DHT22;701;52.526;13.408;2022-11-14T18:43:26;8.30;44.50
1413;DHT22;701;52.526;13.408;2022-11-14T18:46:21;8.30;44.40
1413;DHT22;701;52.526;13.408;2022-11-14T18:49:05;8.30;45.00
1413;DHT22;701;52.526;13.408;2022-11-14T18:51:50;8.30;45.20
1413;DHT22;701;52.526;13.408;2022-11-14T18:54:34;8.30;44.80
1413;DHT22;701;52.526;13.408;2022-11-14T18:57:18;8.30;44.70
1413;DHT22;701;52.526;13.408;2022-11-14T19:00:03;8.30;44.90
1413;DHT22;701;52.526;13.408;2022-11-14T19:02:49;8.30;45.10
1413;DHT22;701;52.526;13.408;2022-11-14T19:05:35;8.30;44.70
1413;DHT22;701;52.526;13.408;2022-11-14T19:08:19;8.30;45.00
1413;DHT22;701;52.526;13.408;2022-11-14T19:11:07;8.20;44.70
1413;DHT22;701;52.526;13.408;2022-11-14T19:13:52;8.30;45.10
1413;DHT22;701;52.526;13.408;2022-11-14T19:16:36;8.20;45.00
1413;DHT22;701;52.526;13.408;2022-11-14T19:19:21;8.20;44.90
1413;DHT22;701;52.526;13.408;2022-11-14T19:22:05;8.20;45.20
1413;DHT22;701;52.526;13.408;2022-11-14T19:24:49;8.20;45.60
1413;DHT22;701;52.526;13.408;2022-11-14T19:27:34;8.20;44.90
1413;DHT22;701;52.526;13.408;2022-11-14T19:30:18;8.20;45.60
1413;DHT22;701;52.526;13.408;2022-11-14T19:33:02;8.20;45.20
1413;DHT22;701;52.526;13.408;2022-11-14T19:35:47;8.20;45.10
1413;DHT22;701;52.526;13.408;2022-11-14T19:38:32;8.20;45.50
1413;DHT22;701;52.526;13.408;2022-11-14T19:41:18;8.10;45.60
1413;DHT22;701;52.526;13.408;2022-11-14T19:44:03;8.10;45.80
1413;DHT22;701;52.526;13.408;2022-11-14T19:46:48;8.10;46.10
1413;DHT22;701;52.526;13.408;2022-11-14T19:49:32;8.10;46.00
1413;DHT22;701;52.526;13.408;2022-11-14T19:52:17;8.10;46.10
1413;DHT22;701;52.526;13.408;2022-11-14T19:55:01;8.00;46.90
1413;DHT22;701;52.526;13.408;2022-11-14T19:57:45;8.00;46.80
1413;DHT22;701;52.526;13.408;2022-11-14T20:00:29;8.00;47.40
1413;DHT22;701;52.526;13.408;2022-11-14T20:03:13;8.00;47.50
1413;DHT22;701;52.526;13.408;2022-11-14T20:05:57;8.00;47.90
1413;DHT22;701;52.526;13.408;2022-11-14T20:08:42;8.00;47.90
1413;DHT22;701;52.526;13.408;2022-11-14T20:11:27;8.00;47.90
1413;DHT22;701;52.526;13.408;2022-11-14T20:14:12;8.00;47.90
1413;DHT22;701;52.526;13.408;2022-11-14T20:16:56;8.00;47.50
1413;DHT22;701;52.526;13.408;2022-11-14T20:19:40;8.00;47.20
1413;DHT22;701;52.526;13.408;2022-11-14T20:22:24;7.90;47.10